Terminal Aerodrome Forecast
Issued by NWS Los Angeles, CA

Home | Current Version | Previous Version | Text Only | Print | Product List | Glossary On
Versions: 1 2 3 4 5 6 7 8 9 10 11 12 13 14 15 16 17 18 19 20 21 22 23 24 25 26 27 28 29 30 31 32 33
000
FTUS46 KLOX 250754 AAA
TAFSMX
TAF AMD
KSMX 250754Z 2508/2606 VRB05KT 3SM BR OVC003
      TEMPO 2508/2512 1/2SM FG VV001
     FM251200 VRB05KT 1/2SM FG VV001
     FM251400 VRB05KT 3SM BR OVC005
     FM251700 28005KT 6SM BR BKN010
     FM251900 29010KT P6SM SKC
     FM260300 VRB05KT 6SM BR BKN003=

USA.gov is the U.S. government's official web portal to all federal, state and local government web resources and services.